sensor_id;sensor_type;location;lat;lon;timestamp;P1;durP1;ratioP1;P2;durP2;ratioP2
30966;SDS011;17649;51.836;8.330;2022-07-09T00:01:59;15.35;;;7.00;;
30966;SDS011;17649;51.836;8.330;2022-07-09T00:05:04;8.50;;;6.35;;
30966;SDS011;17649;51.836;8.330;2022-07-09T00:08:20;11.77;;;7.18;;
30966;SDS011;17649;51.836;8.330;2022-07-09T00:11:23;9.73;;;6.72;;
30966;SDS011;17649;51.836;8.330;2022-07-09T00:14:29;8.68;;;6.78;;
30966;SDS011;17649;51.836;8.330;2022-07-09T00:17:33;15.68;;;7.20;;
30966;SDS011;17649;51.836;8.330;2022-07-09T00:20:36;13.27;;;6.70;;
30966;SDS011;17649;51.836;8.330;2022-07-09T00:23:41;6.72;;;6.03;;
30966;SDS011;17649;51.836;8.330;2022-07-09T00:26:49;14.85;;;7.10;;
30966;SDS011;17649;51.836;8.330;2022-07-09T00:30:05;13.90;;;6.90;;
30966;SDS011;17649;51.836;8.330;2022-07-09T00:33:51;9.50;;;7.32;;
30966;SDS011;17649;51.836;8.330;2022-07-09T00:37:01;10.13;;;6.95;;
30966;SDS011;17649;51.836;8.330;2022-07-09T00:40:07;11.73;;;7.43;;
30966;SDS011;17649;51.836;8.330;2022-07-09T00:43:19;18.17;;;7.88;;
30966;SDS011;17649;51.836;8.330;2022-07-09T00:46:30;12.95;;;7.75;;
30966;SDS011;17649;51.836;8.330;2022-07-09T00:53:19;13.43;;;7.53;;
30966;SDS011;17649;51.836;8.330;2022-07-09T00:56:44;25.05;;;8.63;;
30966;SDS011;17649;51.836;8.330;2022-07-09T01:04:00;16.75;;;7.90;;
30966;SDS011;17649;51.836;8.330;2022-07-09T01:07:21;18.20;;;8.27;;
30966;SDS011;17649;51.836;8.330;2022-07-09T01:10:37;17.20;;;8.73;;
30966;SDS011;17649;51.836;8.330;2022-07-09T01:13:44;11.82;;;7.60;;
30966;SDS011;17649;51.836;8.330;2022-07-09T01:16:55;15.85;;;7.72;;
30966;SDS011;17649;51.836;8.330;2022-07-09T01:20:10;15.57;;;7.82;;
30966;SDS011;17649;51.836;8.330;2022-07-09T01:23:18;15.88;;;7.57;;
30966;SDS011;17649;51.836;8.330;2022-07-09T01:26:24;14.32;;;8.60;;
30966;SDS011;17649;51.836;8.330;2022-07-09T01:29:30;18.55;;;7.70;;
30966;SDS011;17649;51.836;8.330;2022-07-09T01:32:33;14.10;;;7.40;;
30966;SDS011;17649;51.836;8.330;2022-07-09T01:35:37;11.52;;;7.03;;
30966;SDS011;17649;51.836;8.330;2022-07-09T01:38:43;13.20;;;7.85;;
30966;SDS011;17649;51.836;8.330;2022-07-09T01:41:49;13.30;;;7.60;;
30966;SDS011;17649;51.836;8.330;2022-07-09T01:44:52;14.52;;;7.00;;
30966;SDS011;17649;51.836;8.330;2022-07-09T01:48:04;9.05;;;6.50;;
30966;SDS011;17649;51.836;8.330;2022-07-09T01:51:14;12.52;;;7.10;;
30966;SDS011;17649;51.836;8.330;2022-07-09T01:54:25;11.23;;;7.75;;
30966;SDS011;17649;51.836;8.330;2022-07-09T02:01:46;13.80;;;8.43;;
30966;SDS011;17649;51.836;8.330;2022-07-09T02:05:14;11.45;;;7.97;;
30966;SDS011;17649;51.836;8.330;2022-07-09T02:08:37;14.35;;;6.80;;
30966;SDS011;17649;51.836;8.330;2022-07-09T02:11:49;9.65;;;6.85;;
30966;SDS011;17649;51.836;8.330;2022-07-09T02:14:55;14.02;;;9.25;;
30966;SDS011;17649;51.836;8.330;2022-07-09T02:18:02;16.60;;;9.20;;
30966;SDS011;17649;51.836;8.330;2022-07-09T02:21:10;18.10;;;9.45;;
30966;SDS011;17649;51.836;8.330;2022-07-09T02:24:20;14.38;;;9.48;;
30966;SDS011;17649;51.836;8.330;2022-07-09T02:27:24;13.93;;;9.00;;
30966;SDS011;17649;51.836;8.330;2022-07-09T02:30:30;18.05;;;9.18;;
30966;SDS011;17649;51.836;8.330;2022-07-09T02:33:40;16.15;;;9.48;;
30966;SDS011;17649;51.836;8.330;2022-07-09T02:36:46;18.20;;;9.48;;
30966;SDS011;17649;51.836;8.330;2022-07-09T02:39:59;16.88;;;10.02;;
30966;SDS011;17649;51.836;8.330;2022-07-09T02:43:15;16.40;;;9.85;;
30966;SDS011;17649;51.836;8.330;2022-07-09T02:46:34;16.00;;;10.85;;
30966;SDS011;17649;51.836;8.330;2022-07-09T02:53:51;23.42;;;10.35;;
30966;SDS011;17649;51.836;8.330;2022-07-09T02:57:17;18.73;;;11.10;;
30966;SDS011;17649;51.836;8.330;2022-07-09T03:04:05;19.20;;;10.27;;
30966;SDS011;17649;51.836;8.330;2022-07-09T03:07:35;18.42;;;10.07;;
30966;SDS011;17649;51.836;8.330;2022-07-09T03:11:07;16.02;;;9.80;;
30966;SDS011;17649;51.836;8.330;2022-07-09T03:14:54;15.82;;;10.30;;
30966;SDS011;17649;51.836;8.330;2022-07-09T03:18:24;16.33;;;9.43;;
30966;SDS011;17649;51.836;8.330;2022-07-09T03:21:39;15.85;;;10.88;;
30966;SDS011;17649;51.836;8.330;2022-07-09T03:24:54;21.98;;;12.15;;
30966;SDS011;17649;51.836;8.330;2022-07-09T03:28:22;15.95;;;9.18;;
30966;SDS011;17649;51.836;8.330;2022-07-09T03:31:30;14.18;;;9.60;;
30966;SDS011;17649;51.836;8.330;2022-07-09T03:35:05;12.88;;;9.50;;
30966;SDS011;17649;51.836;8.330;2022-07-09T03:38:43;15.18;;;10.00;;
30966;SDS011;17649;51.836;8.330;2022-07-09T03:42:15;15.13;;;9.98;;
30966;SDS011;17649;51.836;8.330;2022-07-09T03:45:40;22.13;;;12.80;;
30966;SDS011;17649;51.836;8.330;2022-07-09T03:48:59;20.70;;;11.35;;
30966;SDS011;17649;51.836;8.330;2022-07-09T03:56:11;19.13;;;11.68;;
30966;SDS011;17649;51.836;8.330;2022-07-09T03:59:34;20.55;;;12.25;;
30966;SDS011;17649;51.836;8.330;2022-07-09T04:06:31;18.38;;;12.10;;
30966;SDS011;17649;51.836;8.330;2022-07-09T04:09:58;18.20;;;11.13;;
30966;SDS011;17649;51.836;8.330;2022-07-09T04:16:59;18.00;;;12.50;;
30966;SDS011;17649;51.836;8.330;2022-07-09T04:20:10;22.83;;;11.63;;
30966;SDS011;17649;51.836;8.330;2022-07-09T04:23:34;16.95;;;10.93;;
30966;SDS011;17649;51.836;8.330;2022-07-09T04:26:50;22.70;;;12.23;;
30966;SDS011;17649;51.836;8.330;2022-07-09T04:30:17;19.30;;;11.73;;
30966;SDS011;17649;51.836;8.330;2022-07-09T04:33:25;19.73;;;11.20;;
30966;SDS011;17649;51.836;8.330;2022-07-09T04:36:30;20.90;;;11.85;;
30966;SDS011;17649;51.836;8.330;2022-07-09T04:39:45;22.77;;;11.00;;
30966;SDS011;17649;51.836;8.330;2022-07-09T04:42:52;22.55;;;11.30;;
30966;SDS011;17649;51.836;8.330;2022-07-09T04:46:00;21.58;;;11.05;;
30966;SDS011;17649;51.836;8.330;2022-07-09T04:49:06;22.73;;;13.63;;
30966;SDS011;17649;51.836;8.330;2022-07-09T04:52:10;22.30;;;10.95;;
30966;SDS011;17649;51.836;8.330;2022-07-09T04:55:20;21.63;;;10.57;;
30966;SDS011;17649;51.836;8.330;2022-07-09T04:58:23;18.83;;;10.35;;
30966;SDS011;17649;51.836;8.330;2022-07-09T05:01:28;18.67;;;10.48;;
30966;SDS011;17649;51.836;8.330;2022-07-09T05:04:30;23.77;;;10.27;;
30966;SDS011;17649;51.836;8.330;2022-07-09T05:07:38;20.30;;;10.00;;
30966;SDS011;17649;51.836;8.330;2022-07-09T05:10:49;18.90;;;10.95;;
30966;SDS011;17649;51.836;8.330;2022-07-09T05:13:55;19.10;;;9.30;;
30966;SDS011;17649;51.836;8.330;2022-07-09T05:20:27;12.57;;;8.25;;
30966;SDS011;17649;51.836;8.330;2022-07-09T05:24:04;14.00;;;7.28;;
30966;SDS011;17649;51.836;8.330;2022-07-09T05:27:14;12.90;;;7.82;;
30966;SDS011;17649;51.836;8.330;2022-07-09T05:30:42;14.23;;;6.95;;
30966;SDS011;17649;51.836;8.330;2022-07-09T05:34:03;15.68;;;6.50;;
30966;SDS011;17649;51.836;8.330;2022-07-09T05:41:01;10.85;;;7.25;;
30966;SDS011;17649;51.836;8.330;2022-07-09T05:44:24;14.98;;;7.18;;
30966;SDS011;17649;51.836;8.330;2022-07-09T05:47:32;14.80;;;6.75;;
30966;SDS011;17649;51.836;8.330;2022-07-09T05:50:44;9.27;;;6.75;;
30966;SDS011;17649;51.836;8.330;2022-07-09T05:54:13;12.48;;;6.35;;
30966;SDS011;17649;51.836;8.330;2022-07-09T05:57:59;11.82;;;6.97;;
30966;SDS011;17649;51.836;8.330;2022-07-09T06:05:14;14.63;;;6.65;;
30966;SDS011;17649;51.836;8.330;2022-07-09T06:08:24;13.82;;;7.22;;
30966;SDS011;17649;51.836;8.330;2022-07-09T06:12:22;13.27;;;6.40;;
30966;SDS011;17649;51.836;8.330;2022-07-09T06:15:03;15.63;;;6.82;;
30966;SDS011;17649;51.836;8.330;2022-07-09T06:18:41;9.07;;;6.10;;
30966;SDS011;17649;51.836;8.330;2022-07-09T06:22:07;8.75;;;5.72;;
30966;SDS011;17649;51.836;8.330;2022-07-09T06:25:34;15.57;;;6.00;;
30966;SDS011;17649;51.836;8.330;2022-07-09T06:28:59;8.00;;;5.40;;
30966;SDS011;17649;51.836;8.330;2022-07-09T06:32:07;6.65;;;4.93;;
30966;SDS011;17649;51.836;8.330;2022-07-09T06:39:32;10.77;;;6.15;;
30966;SDS011;17649;51.836;8.330;2022-07-09T06:43:01;10.68;;;4.95;;
30966;SDS011;17649;51.836;8.330;2022-07-09T06:50:54;14.02;;;6.40;;
30966;SDS011;17649;51.836;8.330;2022-07-09T06:54:26;10.30;;;6.22;;
30966;SDS011;17649;51.836;8.330;2022-07-09T06:57:31;9.90;;;5.68;;
30966;SDS011;17649;51.836;8.330;2022-07-09T07:01:22;9.63;;;5.68;;
30966;SDS011;17649;51.836;8.330;2022-07-09T07:16:35;8.00;;;4.90;;
30966;SDS011;17649;51.836;8.330;2022-07-09T07:20:16;10.82;;;5.25;;
30966;SDS011;17649;51.836;8.330;2022-07-09T07:26:59;6.75;;;4.57;;
30966;SDS011;17649;51.836;8.330;2022-07-09T07:30:23;6.88;;;4.20;;
30966;SDS011;17649;51.836;8.330;2022-07-09T07:41:28;6.32;;;3.78;;
30966;SDS011;17649;51.836;8.330;2022-07-09T07:45:08;8.05;;;4.20;;
30966;SDS011;17649;51.836;8.330;2022-07-09T07:48:59;5.85;;;3.92;;
30966;SDS011;17649;51.836;8.330;2022-07-09T07:52:29;8.15;;;4.30;;
30966;SDS011;17649;51.836;8.330;2022-07-09T08:00:28;7.85;;;4.10;;
30966;SDS011;17649;51.836;8.330;2022-07-09T08:07:39;6.15;;;3.58;;
30966;SDS011;17649;51.836;8.330;2022-07-09T08:11:00;6.32;;;3.85;;
30966;SDS011;17649;51.836;8.330;2022-07-09T08:18:31;5.93;;;3.35;;
30966;SDS011;17649;51.836;8.330;2022-07-09T08:29:49;6.03;;;3.50;;
30966;SDS011;17649;51.836;8.330;2022-07-09T08:41:35;6.22;;;4.45;;
30966;SDS011;17649;51.836;8.330;2022-07-09T08:48:41;6.78;;;4.32;;
30966;SDS011;17649;51.836;8.330;2022-07-09T09:04:40;6.47;;;3.83;;
30966;SDS011;17649;51.836;8.330;2022-07-09T09:08:43;6.22;;;4.18;;
30966;SDS011;17649;51.836;8.330;2022-07-09T09:15:16;4.25;;;3.80;;
30966;SDS011;17649;51.836;8.330;2022-07-09T09:19:29;4.07;;;2.88;;
30966;SDS011;17649;51.836;8.330;2022-07-09T09:22:13;4.75;;;3.13;;
30966;SDS011;17649;51.836;8.330;2022-07-09T09:26:06;6.53;;;2.85;;
30966;SDS011;17649;51.836;8.330;2022-07-09T09:29:36;3.13;;;2.63;;
30966;SDS011;17649;51.836;8.330;2022-07-09T09:33:01;3.33;;;2.42;;
30966;SDS011;17649;51.836;8.330;2022-07-09T09:44:20;3.92;;;3.38;;
30966;SDS011;17649;51.836;8.330;2022-07-09T09:52:02;3.55;;;2.70;;
30966;SDS011;17649;51.836;8.330;2022-07-09T09:55:52;4.55;;;2.85;;
30966;SDS011;17649;51.836;8.330;2022-07-09T09:58:55;3.15;;;2.85;;
30966;SDS011;17649;51.836;8.330;2022-07-09T10:02:01;3.80;;;2.45;;
30966;SDS011;17649;51.836;8.330;2022-07-09T10:05:13;3.13;;;2.80;;
30966;SDS011;17649;51.836;8.330;2022-07-09T10:08:18;3.47;;;3.17;;
30966;SDS011;17649;51.836;8.330;2022-07-09T10:11:23;8.30;;;3.25;;
30966;SDS011;17649;51.836;8.330;2022-07-09T10:17:39;5.97;;;3.40;;
30966;SDS011;17649;51.836;8.330;2022-07-09T10:20:54;15.13;;;2.90;;
30966;SDS011;17649;51.836;8.330;2022-07-09T10:24:00;5.22;;;2.92;;
30966;SDS011;17649;51.836;8.330;2022-07-09T10:27:06;2.95;;;2.72;;
30966;SDS011;17649;51.836;8.330;2022-07-09T10:30:28;5.22;;;3.15;;
30966;SDS011;17649;51.836;8.330;2022-07-09T10:33:35;3.03;;;2.72;;
30966;SDS011;17649;51.836;8.330;2022-07-09T10:36:58;5.25;;;3.33;;
30966;SDS011;17649;51.836;8.330;2022-07-09T10:43:17;4.05;;;2.72;;
30966;SDS011;17649;51.836;8.330;2022-07-09T10:46:23;3.30;;;2.70;;
30966;SDS011;17649;51.836;8.330;2022-07-09T10:49:29;3.35;;;3.05;;
30966;SDS011;17649;51.836;8.330;2022-07-09T10:52:31;6.75;;;3.40;;
30966;SDS011;17649;51.836;8.330;2022-07-09T10:55:35;3.47;;;3.17;;
30966;SDS011;17649;51.836;8.330;2022-07-09T10:58:38;3.25;;;2.95;;
30966;SDS011;17649;51.836;8.330;2022-07-09T11:01:48;3.20;;;2.90;;
30966;SDS011;17649;51.836;8.330;2022-07-09T11:04:57;4.22;;;3.03;;
30966;SDS011;17649;51.836;8.330;2022-07-09T11:08:00;8.10;;;2.88;;
30966;SDS011;17649;51.836;8.330;2022-07-09T11:11:04;6.75;;;3.10;;
30966;SDS011;17649;51.836;8.330;2022-07-09T11:14:09;3.50;;;3.20;;
30966;SDS011;17649;51.836;8.330;2022-07-09T11:17:16;5.07;;;3.22;;
30966;SDS011;17649;51.836;8.330;2022-07-09T11:20:19;5.75;;;3.10;;
30966;SDS011;17649;51.836;8.330;2022-07-09T11:23:21;3.80;;;3.22;;
30966;SDS011;17649;51.836;8.330;2022-07-09T11:26:23;4.63;;;2.83;;
30966;SDS011;17649;51.836;8.330;2022-07-09T11:29:31;6.50;;;3.20;;
30966;SDS011;17649;51.836;8.330;2022-07-09T11:32:50;3.08;;;2.83;;
30966;SDS011;17649;51.836;8.330;2022-07-09T11:35:55;3.03;;;2.78;;
30966;SDS011;17649;51.836;8.330;2022-07-09T11:38:57;4.35;;;2.90;;
30966;SDS011;17649;51.836;8.330;2022-07-09T11:42:00;3.15;;;2.92;;
30966;SDS011;17649;51.836;8.330;2022-07-09T11:45:01;3.17;;;2.88;;
30966;SDS011;17649;51.836;8.330;2022-07-09T11:48:09;2.80;;;2.60;;
30966;SDS011;17649;51.836;8.330;2022-07-09T11:51:30;3.22;;;2.92;;
30966;SDS011;17649;51.836;8.330;2022-07-09T11:54:35;4.22;;;2.67;;
30966;SDS011;17649;51.836;8.330;2022-07-09T11:57:37;5.30;;;2.85;;
30966;SDS011;17649;51.836;8.330;2022-07-09T12:00:42;6.22;;;2.78;;
30966;SDS011;17649;51.836;8.330;2022-07-09T12:03:52;4.50;;;3.08;;
30966;SDS011;17649;51.836;8.330;2022-07-09T12:10:14;7.75;;;3.10;;
30966;SDS011;17649;51.836;8.330;2022-07-09T12:13:28;4.18;;;3.00;;
30966;SDS011;17649;51.836;8.330;2022-07-09T12:16:32;6.15;;;2.90;;
30966;SDS011;17649;51.836;8.330;2022-07-09T12:19:40;2.90;;;2.60;;
30966;SDS011;17649;51.836;8.330;2022-07-09T12:22:47;3.47;;;2.83;;
30966;SDS011;17649;51.836;8.330;2022-07-09T12:25:49;5.05;;;3.10;;
30966;SDS011;17649;51.836;8.330;2022-07-09T12:28:51;3.60;;;3.00;;
30966;SDS011;17649;51.836;8.330;2022-07-09T12:31:55;5.32;;;2.92;;
30966;SDS011;17649;51.836;8.330;2022-07-09T12:35:01;3.33;;;2.90;;
30966;SDS011;17649;51.836;8.330;2022-07-09T12:38:04;2.70;;;2.50;;
30966;SDS011;17649;51.836;8.330;2022-07-09T12:41:09;5.57;;;3.15;;
30966;SDS011;17649;51.836;8.330;2022-07-09T12:44:13;3.53;;;2.75;;
30966;SDS011;17649;51.836;8.330;2022-07-09T12:47:19;3.35;;;2.88;;
30966;SDS011;17649;51.836;8.330;2022-07-09T12:50:29;3.28;;;2.97;;
30966;SDS011;17649;51.836;8.330;2022-07-09T12:53:31;3.63;;;2.90;;
30966;SDS011;17649;51.836;8.330;2022-07-09T12:56:41;5.03;;;3.85;;
30966;SDS011;17649;51.836;8.330;2022-07-09T12:59:45;3.85;;;2.75;;
30966;SDS011;17649;51.836;8.330;2022-07-09T13:02:49;3.70;;;3.25;;
30966;SDS011;17649;51.836;8.330;2022-07-09T13:08:58;4.47;;;2.90;;
30966;SDS011;17649;51.836;8.330;2022-07-09T13:12:05;3.15;;;2.80;;
30966;SDS011;17649;51.836;8.330;2022-07-09T13:15:07;4.53;;;2.90;;
30966;SDS011;17649;51.836;8.330;2022-07-09T13:18:10;3.10;;;2.88;;
30966;SDS011;17649;51.836;8.330;2022-07-09T13:21:12;3.42;;;2.88;;
30966;SDS011;17649;51.836;8.330;2022-07-09T13:24:26;3.20;;;2.90;;
30966;SDS011;17649;51.836;8.330;2022-07-09T13:27:28;3.10;;;2.90;;
30966;SDS011;17649;51.836;8.330;2022-07-09T13:30:32;5.45;;;2.90;;
30966;SDS011;17649;51.836;8.330;2022-07-09T13:33:35;5.55;;;2.45;;
30966;SDS011;17649;51.836;8.330;2022-07-09T13:36:38;2.72;;;2.47;;
30966;SDS011;17649;51.836;8.330;2022-07-09T13:42:41;3.55;;;2.90;;
30966;SDS011;17649;51.836;8.330;2022-07-09T13:45:46;4.53;;;2.67;;
30966;SDS011;17649;51.836;8.330;2022-07-09T13:48:50;3.25;;;2.72;;
30966;SDS011;17649;51.836;8.330;2022-07-09T13:51:51;2.50;;;2.33;;
30966;SDS011;17649;51.836;8.330;2022-07-09T13:54:52;2.50;;;2.30;;
30966;SDS011;17649;51.836;8.330;2022-07-09T13:57:54;2.97;;;2.65;;
30966;SDS011;17649;51.836;8.330;2022-07-09T14:00:55;5.85;;;2.47;;
30966;SDS011;17649;51.836;8.330;2022-07-09T14:04:00;2.58;;;2.28;;
30966;SDS011;17649;51.836;8.330;2022-07-09T14:07:07;4.38;;;2.35;;
30966;SDS011;17649;51.836;8.330;2022-07-09T14:10:08;3.03;;;2.60;;
30966;SDS011;17649;51.836;8.330;2022-07-09T14:16:30;2.63;;;2.42;;
30966;SDS011;17649;51.836;8.330;2022-07-09T14:19:39;3.78;;;2.50;;
30966;SDS011;17649;51.836;8.330;2022-07-09T14:22:43;2.72;;;2.47;;
30966;SDS011;17649;51.836;8.330;2022-07-09T14:25:45;3.20;;;2.47;;
30966;SDS011;17649;51.836;8.330;2022-07-09T14:28:48;2.42;;;2.25;;
30966;SDS011;17649;51.836;8.330;2022-07-09T14:31:56;2.60;;;2.40;;
30966;SDS011;17649;51.836;8.330;2022-07-09T14:35:00;2.75;;;2.55;;
30966;SDS011;17649;51.836;8.330;2022-07-09T14:38:05;3.10;;;2.15;;
30966;SDS011;17649;51.836;8.330;2022-07-09T14:41:12;2.70;;;2.50;;
30966;SDS011;17649;51.836;8.330;2022-07-09T14:44:17;2.50;;;2.30;;
30966;SDS011;17649;51.836;8.330;2022-07-09T14:47:21;2.85;;;2.65;;
30966;SDS011;17649;51.836;8.330;2022-07-09T14:50:22;3.55;;;2.60;;
30966;SDS011;17649;51.836;8.330;2022-07-09T14:53:29;2.47;;;2.28;;
30966;SDS011;17649;51.836;8.330;2022-07-09T14:56:31;2.63;;;2.42;;
30966;SDS011;17649;51.836;8.330;2022-07-09T14:59:36;3.42;;;2.30;;
30966;SDS011;17649;51.836;8.330;2022-07-09T15:02:47;2.58;;;2.42;;
30966;SDS011;17649;51.836;8.330;2022-07-09T15:05:50;3.53;;;2.70;;
30966;SDS011;17649;51.836;8.330;2022-07-09T15:08:55;9.32;;;2.80;;
30966;SDS011;17649;51.836;8.330;2022-07-09T15:15:48;3.83;;;2.28;;
30966;SDS011;17649;51.836;8.330;2022-07-09T15:18:53;2.40;;;2.30;;
30966;SDS011;17649;51.836;8.330;2022-07-09T15:22:00;6.55;;;2.35;;
30966;SDS011;17649;51.836;8.330;2022-07-09T15:25:06;2.53;;;2.30;;
30966;SDS011;17649;51.836;8.330;2022-07-09T15:28:16;5.25;;;2.72;;
30966;SDS011;17649;51.836;8.330;2022-07-09T15:31:17;16.63;;;2.97;;
30966;SDS011;17649;51.836;8.330;2022-07-09T15:34:43;2.60;;;2.40;;
30966;SDS011;17649;51.836;8.330;2022-07-09T15:37:48;2.85;;;2.25;;
30966;SDS011;17649;51.836;8.330;2022-07-09T15:40:50;8.60;;;3.50;;
30966;SDS011;17649;51.836;8.330;2022-07-09T15:44:06;5.07;;;2.50;;
30966;SDS011;17649;51.836;8.330;2022-07-09T15:51:18;4.28;;;2.80;;
30966;SDS011;17649;51.836;8.330;2022-07-09T15:54:16;4.10;;;2.60;;
30966;SDS011;17649;51.836;8.330;2022-07-09T15:58:20;4.25;;;2.53;;
30966;SDS011;17649;51.836;8.330;2022-07-09T16:01:34;4.45;;;2.88;;
30966;SDS011;17649;51.836;8.330;2022-07-09T16:04:41;3.15;;;2.70;;
30966;SDS011;17649;51.836;8.330;2022-07-09T16:12:28;6.03;;;3.10;;
30966;SDS011;17649;51.836;8.330;2022-07-09T16:15:51;5.55;;;2.92;;
30966;SDS011;17649;51.836;8.330;2022-07-09T16:19:09;4.57;;;2.90;;
30966;SDS011;17649;51.836;8.330;2022-07-09T16:22:20;12.13;;;3.30;;
30966;SDS011;17649;51.836;8.330;2022-07-09T16:25:25;6.00;;;2.95;;
30966;SDS011;17649;51.836;8.330;2022-07-09T16:28:26;7.60;;;3.10;;
30966;SDS011;17649;51.836;8.330;2022-07-09T16:31:33;6.65;;;3.40;;
30966;SDS011;17649;51.836;8.330;2022-07-09T16:34:37;3.78;;;3.10;;
30966;SDS011;17649;51.836;8.330;2022-07-09T16:37:39;4.88;;;2.83;;
30966;SDS011;17649;51.836;8.330;2022-07-09T16:41:06;8.75;;;3.22;;
30966;SDS011;17649;51.836;8.330;2022-07-09T16:51:02;4.35;;;2.75;;
30966;SDS011;17649;51.836;8.330;2022-07-09T16:54:04;6.95;;;3.28;;
30966;SDS011;17649;51.836;8.330;2022-07-09T16:57:06;6.15;;;2.95;;
30966;SDS011;17649;51.836;8.330;2022-07-09T17:00:08;7.90;;;2.90;;
30966;SDS011;17649;51.836;8.330;2022-07-09T17:03:21;7.05;;;2.88;;
30966;SDS011;17649;51.836;8.330;2022-07-09T17:06:32;5.65;;;3.40;;
30966;SDS011;17649;51.836;8.330;2022-07-09T17:09:33;8.93;;;2.83;;
30966;SDS011;17649;51.836;8.330;2022-07-09T17:12:35;8.35;;;3.05;;
30966;SDS011;17649;51.836;8.330;2022-07-09T17:15:39;8.13;;;3.38;;
30966;SDS011;17649;51.836;8.330;2022-07-09T17:18:42;4.68;;;2.70;;
30966;SDS011;17649;51.836;8.330;2022-07-09T17:21:46;6.63;;;3.22;;
30966;SDS011;17649;51.836;8.330;2022-07-09T17:24:53;9.18;;;3.08;;
30966;SDS011;17649;51.836;8.330;2022-07-09T17:28:40;5.07;;;2.38;;
30966;SDS011;17649;51.836;8.330;2022-07-09T17:32:06;9.32;;;3.08;;
30966;SDS011;17649;51.836;8.330;2022-07-09T17:35:22;4.38;;;2.50;;
30966;SDS011;17649;51.836;8.330;2022-07-09T17:38:24;3.28;;;2.65;;
30966;SDS011;17649;51.836;8.330;2022-07-09T17:44:55;11.68;;;3.10;;
30966;SDS011;17649;51.836;8.330;2022-07-09T17:47:57;6.10;;;2.83;;
30966;SDS011;17649;51.836;8.330;2022-07-09T17:50:58;3.67;;;2.58;;
30966;SDS011;17649;51.836;8.330;2022-07-09T17:54:03;7.38;;;2.92;;
30966;SDS011;17649;51.836;8.330;2022-07-09T17:57:05;11.20;;;2.83;;
30966;SDS011;17649;51.836;8.330;2022-07-09T18:00:07;13.23;;;3.28;;
30966;SDS011;17649;51.836;8.330;2022-07-09T18:03:18;5.57;;;2.60;;
30966;SDS011;17649;51.836;8.330;2022-07-09T18:06:41;7.43;;;2.97;;
30966;SDS011;17649;51.836;8.330;2022-07-09T18:09:56;6.40;;;2.60;;
30966;SDS011;17649;51.836;8.330;2022-07-09T18:13:14;2.50;;;2.30;;
30966;SDS011;17649;51.836;8.330;2022-07-09T18:16:33;4.53;;;2.38;;
30966;SDS011;17649;51.836;8.330;2022-07-09T18:19:48;9.77;;;2.75;;
30966;SDS011;17649;51.836;8.330;2022-07-09T18:22:57;4.60;;;2.50;;
30966;SDS011;17649;51.836;8.330;2022-07-09T18:29:07;4.10;;;2.65;;
30966;SDS011;17649;51.836;8.330;2022-07-09T18:32:23;4.50;;;2.30;;
30966;SDS011;17649;51.836;8.330;2022-07-09T18:35:27;4.65;;;2.45;;
30966;SDS011;17649;51.836;8.330;2022-07-09T18:38:47;5.40;;;2.97;;
30966;SDS011;17649;51.836;8.330;2022-07-09T18:41:55;5.88;;;2.90;;
30966;SDS011;17649;51.836;8.330;2022-07-09T18:45:32;6.97;;;2.78;;
30966;SDS011;17649;51.836;8.330;2022-07-09T19:09:15;4.93;;;3.22;;
30966;SDS011;17649;51.836;8.330;2022-07-09T19:12:49;7.10;;;3.33;;
30966;SDS011;17649;51.836;8.330;2022-07-09T19:15:58;5.45;;;2.95;;
30966;SDS011;17649;51.836;8.330;2022-07-09T19:19:01;6.20;;;2.85;;
30966;SDS011;17649;51.836;8.330;2022-07-09T19:22:05;3.95;;;2.40;;
30966;SDS011;17649;51.836;8.330;2022-07-09T19:25:14;5.15;;;2.55;;
30966;SDS011;17649;51.836;8.330;2022-07-09T19:28:20;5.10;;;2.78;;
30966;SDS011;17649;51.836;8.330;2022-07-09T19:31:32;5.93;;;2.92;;
30966;SDS011;17649;51.836;8.330;2022-07-09T19:35:02;3.38;;;2.72;;
30966;SDS011;17649;51.836;8.330;2022-07-09T19:38:09;3.25;;;2.50;;
30966;SDS011;17649;51.836;8.330;2022-07-09T19:41:16;3.22;;;2.45;;
30966;SDS011;17649;51.836;8.330;2022-07-09T19:44:23;4.63;;;2.58;;
30966;SDS011;17649;51.836;8.330;2022-07-09T19:47:30;7.20;;;2.60;;
30966;SDS011;17649;51.836;8.330;2022-07-09T19:50:39;10.05;;;2.95;;
30966;SDS011;17649;51.836;8.330;2022-07-09T19:53:45;4.72;;;2.35;;
30966;SDS011;17649;51.836;8.330;2022-07-09T19:56:48;4.78;;;2.33;;
30966;SDS011;17649;51.836;8.330;2022-07-09T19:59:53;2.50;;;2.30;;
30966;SDS011;17649;51.836;8.330;2022-07-09T20:02:57;4.70;;;2.97;;
30966;SDS011;17649;51.836;8.330;2022-07-09T20:09:06;7.20;;;2.63;;
30966;SDS011;17649;51.836;8.330;2022-07-09T20:12:09;5.55;;;2.22;;
30966;SDS011;17649;51.836;8.330;2022-07-09T20:15:17;9.23;;;2.55;;
30966;SDS011;17649;51.836;8.330;2022-07-09T20:18:24;7.05;;;2.50;;
30966;SDS011;17649;51.836;8.330;2022-07-09T20:21:26;5.68;;;2.45;;
30966;SDS011;17649;51.836;8.330;2022-07-09T20:24:29;6.93;;;3.75;;
30966;SDS011;17649;51.836;8.330;2022-07-09T20:27:32;6.05;;;2.40;;
30966;SDS011;17649;51.836;8.330;2022-07-09T20:30:34;3.42;;;2.40;;
30966;SDS011;17649;51.836;8.330;2022-07-09T20:33:36;5.13;;;2.65;;
30966;SDS011;17649;51.836;8.330;2022-07-09T20:36:39;4.20;;;2.60;;
30966;SDS011;17649;51.836;8.330;2022-07-09T20:39:47;7.47;;;3.10;;
30966;SDS011;17649;51.836;8.330;2022-07-09T20:42:51;6.93;;;2.72;;
30966;SDS011;17649;51.836;8.330;2022-07-09T20:45:53;2.90;;;2.15;;
30966;SDS011;17649;51.836;8.330;2022-07-09T20:48:58;7.03;;;2.50;;
30966;SDS011;17649;51.836;8.330;2022-07-09T20:52:06;8.50;;;2.78;;
30966;SDS011;17649;51.836;8.330;2022-07-09T20:55:09;6.22;;;2.20;;
30966;SDS011;17649;51.836;8.330;2022-07-09T20:58:17;9.15;;;3.17;;
30966;SDS011;17649;51.836;8.330;2022-07-09T21:01:18;8.13;;;2.95;;
30966;SDS011;17649;51.836;8.330;2022-07-09T21:04:18;5.55;;;2.70;;
30966;SDS011;17649;51.836;8.330;2022-07-09T21:07:35;2.42;;;2.20;;
30966;SDS011;17649;51.836;8.330;2022-07-09T21:10:46;5.55;;;2.75;;
30966;SDS011;17649;51.836;8.330;2022-07-09T21:13:58;8.23;;;2.53;;
30966;SDS011;17649;51.836;8.330;2022-07-09T21:17:00;5.82;;;2.58;;
30966;SDS011;17649;51.836;8.330;2022-07-09T21:20:24;9.25;;;2.58;;
30966;SDS011;17649;51.836;8.330;2022-07-09T21:23:28;7.35;;;2.65;;
30966;SDS011;17649;51.836;8.330;2022-07-09T21:26:32;3.17;;;2.40;;
30966;SDS011;17649;51.836;8.330;2022-07-09T21:29:36;6.35;;;2.40;;
30966;SDS011;17649;51.836;8.330;2022-07-09T21:32:38;6.45;;;2.35;;
30966;SDS011;17649;51.836;8.330;2022-07-09T21:35:44;6.50;;;2.55;;
30966;SDS011;17649;51.836;8.330;2022-07-09T21:38:47;7.32;;;2.53;;
30966;SDS011;17649;51.836;8.330;2022-07-09T21:41:55;9.35;;;3.33;;
30966;SDS011;17649;51.836;8.330;2022-07-09T21:44:58;4.07;;;2.33;;
30966;SDS011;17649;51.836;8.330;2022-07-09T21:51:06;7.40;;;2.42;;
30966;SDS011;17649;51.836;8.330;2022-07-09T21:54:08;6.07;;;2.80;;
30966;SDS011;17649;51.836;8.330;2022-07-09T21:57:10;4.00;;;2.38;;
30966;SDS011;17649;51.836;8.330;2022-07-09T22:03:33;9.93;;;3.28;;
30966;SDS011;17649;51.836;8.330;2022-07-09T22:06:35;6.07;;;3.20;;
30966;SDS011;17649;51.836;8.330;2022-07-09T22:09:45;6.85;;;2.55;;
30966;SDS011;17649;51.836;8.330;2022-07-09T22:12:47;6.45;;;2.65;;
30966;SDS011;17649;51.836;8.330;2022-07-09T22:15:48;9.45;;;2.72;;
30966;SDS011;17649;51.836;8.330;2022-07-09T22:18:49;4.95;;;2.55;;
30966;SDS011;17649;51.836;8.330;2022-07-09T22:21:50;8.45;;;2.60;;
30966;SDS011;17649;51.836;8.330;2022-07-09T22:24:55;8.55;;;2.30;;
30966;SDS011;17649;51.836;8.330;2022-07-09T22:28:08;13.30;;;3.15;;
30966;SDS011;17649;51.836;8.330;2022-07-09T22:31:13;18.27;;;2.90;;
30966;SDS011;17649;51.836;8.330;2022-07-09T22:34:17;6.03;;;2.70;;
30966;SDS011;17649;51.836;8.330;2022-07-09T22:37:19;8.27;;;2.20;;